Time;durP1;ratioP1;P1;durP2;ratioP2;P2;SDS_P1;SDS_P2;PMS_P1;PMS_P2;Temp;Humidity;BMP_temperature;BMP_pressure;BME280_temperature;BME280_humidity;BME280_pressure;Samples;Min_cycle;Max_cycle;Signal;HPM_P1;HPM_P2
2022/12/24 00:00:15;;;;;;;6.22;1.77;;;16.90;82.80;;;;;;5061786;28;45437;-71
2022/12/24 00:02:42;;;;;;;6.47;1.85;;;16.90;82.60;;;;;;5061955;28;45334;-71
2022/12/24 00:05:09;;;;;;;6.03;1.52;;;16.90;82.60;;;;;;5062057;28;45298;-72
2022/12/24 00:07:36;;;;;;;9.70;2.05;;;17.00;82.50;;;;;;5060284;28;47819;-73
2022/12/24 00:10:05;;;;;;;10.38;1.80;;;17.00;82.10;;;;;;5061600;28;45331;-72
2022/12/24 00:12:32;;;;;;;6.82;2.05;;;17.00;82.20;;;;;;5062484;28;45375;-71
2022/12/24 00:14:59;;;;;;;8.05;1.45;;;17.00;82.40;;;;;;5061611;28;45240;-72
2022/12/24 00:17:26;;;;;;;6.57;1.52;;;17.00;82.20;;;;;;5056914;28;46471;-71
2022/12/24 00:19:52;;;;;;;8.77;1.73;;;17.00;81.90;;;;;;5060506;28;45514;-72
2022/12/24 00:22:19;;;;;;;6.70;1.52;;;17.00;82.20;;;;;;5061646;28;45724;-71
2022/12/24 00:24:46;;;;;;;5.72;1.70;;;17.00;81.90;;;;;;5059256;28;45272;-71
2022/12/24 00:27:14;;;;;;;5.15;2.03;;;17.00;82.00;;;;;;5061408;28;46090;-71
2022/12/24 00:29:41;;;;;;;4.90;1.65;;;16.90;82.10;;;;;;5059524;28;45312;-72
2022/12/24 00:32:09;;;;;;;7.45;1.88;;;16.90;82.60;;;;;;5051275;28;45810;-71
2022/12/24 00:34:35;;;;;;;8.98;1.88;;;16.90;82.00;;;;;;5056651;28;45301;-71
2022/12/24 00:37:03;;;;;;;8.57;1.70;;;16.90;82.10;;;;;;5059004;28;46877;-71
2022/12/24 00:39:30;;;;;;;7.90;1.80;;;16.90;82.10;;;;;;5059037;28;45867;-72
2022/12/24 00:41:56;;;;;;;5.93;1.67;;;16.90;82.20;;;;;;5058433;28;45398;-71
2022/12/24 00:44:24;;;;;;;5.80;1.58;;;16.90;82.30;;;;;;5056154;28;45539;-72
2022/12/24 00:46:51;;;;;;;9.35;2.00;;;16.90;82.40;;;;;;5052682;28;47554;-71
2022/12/24 00:49:18;;;;;;;8.63;1.77;;;16.90;82.40;;;;;;5060906;28;45274;-72
2022/12/24 00:51:45;;;;;;;6.10;1.45;;;16.90;82.40;;;;;;5058494;28;45417;-71
2022/12/24 00:54:13;;;;;;;6.65;1.73;;;16.90;82.20;;;;;;5060108;28;45519;-71
2022/12/24 00:56:40;;;;;;;7.45;1.58;;;16.90;81.70;;;;;;5060668;28;47517;-72
2022/12/24 00:59:07;;;;;;;5.25;1.80;;;17.00;82.00;;;;;;5061347;28;46115;-72
2022/12/24 01:01:35;;;;;;;7.85;1.73;;;17.00;82.10;;;;;;5056025;28;45546;-72
2022/12/24 01:06:43;;;;;;;7.93;2.15;;;17.00;82.40;;;;;;5053713;28;46006;-71
2022/12/24 01:09:10;;;;;;;6.28;1.23;;;17.00;82.20;;;;;;5057669;28;45479;-72
2022/12/24 01:11:37;;;;;;;5.22;1.60;;;17.00;82.60;;;;;;5065998;28;45485;-71
2022/12/24 01:14:04;;;;;;;5.18;1.50;;;17.00;84.10;;;;;;5067165;28;45499;-72
2022/12/24 01:16:31;;;;;;;7.50;1.73;;;17.00;82.70;;;;;;5066391;28;46260;-71
2022/12/24 01:18:59;;;;;;;4.75;1.48;;;16.90;83.00;;;;;;5068448;28;45282;-71
2022/12/24 01:21:26;;;;;;;5.10;1.65;;;16.90;83.10;;;;;;5068348;28;45402;-71
2022/12/24 01:23:53;;;;;;;4.57;1.27;;;16.90;83.10;;;;;;5068597;28;45423;-71
2022/12/24 01:26:19;;;;;;;6.55;1.77;;;16.90;83.30;;;;;;5065824;28;45379;-71
2022/12/24 01:28:46;;;;;;;7.25;2.00;;;16.90;83.10;;;;;;5068628;28;45357;-71
2022/12/24 01:31:15;;;;;;;5.88;1.48;;;16.90;83.10;;;;;;5068706;28;45205;-72
2022/12/24 01:33:42;;;;;;;6.90;1.90;;;16.90;83.20;;;;;;5068801;28;45633;-71
2022/12/24 01:36:11;;;;;;;5.47;1.67;;;16.90;83.20;;;;;;5062821;28;46706;-72
2022/12/24 01:38:38;;;;;;;11.10;1.75;;;16.90;83.10;;;;;;5061864;28;45511;-71
2022/12/24 01:43:49;;;;;;;5.88;1.45;;;16.90;82.90;;;;;;5057708;28;45425;-72
2022/12/24 01:46:20;;;;;;;4.22;1.42;;;16.90;83.00;;;;;;5066437;28;45414;-71
2022/12/24 01:48:52;;;;;;;6.43;1.75;;;16.90;82.80;;;;;;5063512;28;45243;-72
2022/12/24 01:51:27;;;;;;;6.25;1.77;;;16.90;82.40;;;;;;5056875;28;45454;-72
2022/12/24 01:53:57;;;;;;;5.53;1.20;;;16.90;82.70;;;;;;5069031;28;45276;-71
2022/12/24 01:56:25;;;;;;;6.95;1.40;;;16.90;82.20;;;;;;5067901;28;46664;-71
2022/12/24 01:58:57;;;;;;;10.73;1.77;;;17.00;82.40;;;;;;5061367;28;45370;-72
2022/12/24 02:01:24;;;;;;;7.80;1.60;;;17.00;82.10;;;;;;5059849;28;45255;-72
2022/12/24 02:03:51;;;;;;;6.28;1.88;;;17.00;82.00;;;;;;5068569;28;45293;-71
2022/12/24 02:06:21;;;;;;;6.32;1.70;;;17.00;81.40;;;;;;5068031;28;46410;-71
2022/12/24 02:08:49;;;;;;;9.50;1.90;;;17.00;81.90;;;;;;5067202;28;45444;-72
2022/12/24 02:11:18;;;;;;;7.65;1.50;;;17.00;81.60;;;;;;5066000;28;45485;-72
2022/12/24 02:13:47;;;;;;;5.32;1.42;;;16.90;81.70;;;;;;5068184;28;45262;-71
2022/12/24 02:16:30;;;;;;;5.32;1.60;;;17.00;81.80;;;;;;5057066;28;47199;-73
2022/12/24 02:19:05;;;;;;;5.75;1.35;;;17.00;81.70;;;;;;5047680;28;45628;-72
2022/12/24 02:21:51;;;;;;;8.57;1.73;;;16.90;81.50;;;;;;5052502;28;45411;-72
2022/12/24 02:24:31;;;;;;;7.05;1.38;;;17.00;81.50;;;;;;5044043;28;45431;-72
2022/12/24 02:27:11;;;;;;;9.10;1.73;;;16.90;81.50;;;;;;5045067;28;45542;-72
2022/12/24 02:30:03;;;;;;;5.70;1.55;;;16.90;81.40;;;;;;5044784;28;45339;-72
2022/12/24 02:32:37;;;;;;;7.32;1.80;;;16.90;81.50;;;;;;5044775;28;45464;-72
2022/12/24 02:35:09;;;;;;;5.50;1.25;;;16.90;81.50;;;;;;5060860;28;45524;-72
2022/12/24 02:37:40;;;;;;;9.20;2.22;;;16.90;81.50;;;;;;5064283;28;48665;-73
2022/12/24 02:40:12;;;;;;;5.78;1.50;;;17.00;81.40;;;;;;5055906;28;45300;-72
2022/12/24 02:42:42;;;;;;;8.20;1.60;;;16.90;81.00;;;;;;5056105;28;45449;-72
2022/12/24 02:45:15;;;;;;;5.78;1.50;;;16.90;81.20;;;;;;5064420;28;45420;-72
2022/12/24 02:47:44;;;;;;;7.00;1.90;;;17.00;81.00;;;;;;5065765;28;45496;-71
2022/12/24 02:50:14;;;;;;;7.03;1.25;;;17.00;81.00;;;;;;5064422;28;45300;-71
2022/12/24 02:52:43;;;;;;;7.82;1.83;;;17.00;81.00;;;;;;5064894;28;45501;-71
2022/12/24 02:55:14;;;;;;;3.83;1.25;;;17.00;81.00;;;;;;5061005;28;45418;-72
2022/12/24 02:57:59;;;;;;;8.00;2.03;;;17.00;81.00;;;;;;5059291;28;46264;-72
2022/12/24 03:00:35;;;;;;;7.68;1.83;;;17.00;80.80;;;;;;5056451;28;45319;-72
2022/12/24 03:03:15;;;;;;;3.28;1.10;;;17.00;81.20;;;;;;5064416;28;45364;-71
2022/12/24 03:05:48;;;;;;;4.90;1.45;;;17.00;81.20;;;;;;5058244;28;45349;-72
2022/12/24 03:08:21;;;;;;;7.03;1.42;;;17.00;81.30;;;;;;5064664;28;45584;-71
2022/12/24 03:10:55;;;;;;;6.00;1.42;;;17.00;81.20;;;;;;5064611;28;45260;-72
2022/12/24 03:13:24;;;;;;;4.13;1.02;;;17.00;81.30;;;;;;5045228;28;45276;-71
2022/12/24 03:15:52;;;;;;;6.13;1.65;;;17.00;81.40;;;;;;5043133;28;45326;-72
2022/12/24 03:18:22;;;;;;;5.00;1.20;;;16.90;81.40;;;;;;5044376;28;47194;-71
2022/12/24 03:20:56;;;;;;;6.18;1.55;;;16.90;81.40;;;;;;5050283;28;45266;-71
2022/12/24 03:23:23;;;;;;;3.67;1.30;;;17.00;81.30;;;;;;5055634;28;45313;-72
2022/12/24 03:25:50;;;;;;;6.65;1.42;;;17.00;81.40;;;;;;5050897;28;45230;-72
2022/12/24 03:28:19;;;;;;;3.47;1.13;;;16.90;81.50;;;;;;5046800;28;45261;-72
2022/12/24 03:30:48;;;;;;;5.22;1.50;;;16.90;81.40;;;;;;5057918;28;45327;-72
2022/12/24 03:33:17;;;;;;;4.65;1.42;;;17.00;81.40;;;;;;5043659;28;45244;-72
2022/12/24 03:35:44;;;;;;;6.13;1.70;;;17.00;81.40;;;;;;5044190;28;45467;-71
2022/12/24 03:38:11;;;;;;;3.58;1.23;;;17.00;81.40;;;;;;5044600;28;45321;-72
2022/12/24 03:40:37;;;;;;;6.00;1.52;;;17.00;81.40;;;;;;5044078;28;45342;-71
2022/12/24 03:43:04;;;;;;;2.42;0.85;;;17.00;81.20;;;;;;5060398;28;45347;-71
2022/12/24 03:45:31;;;;;;;3.60;1.27;;;17.00;81.10;;;;;;5063915;28;45260;-72
2022/12/24 03:47:58;;;;;;;4.95;1.20;;;17.00;81.10;;;;;;5063789;28;47059;-72
2022/12/24 03:50:26;;;;;;;3.88;1.15;;;17.00;81.00;;;;;;5063950;28;45332;-72
2022/12/24 03:52:54;;;;;;;2.20;0.85;;;17.00;81.30;;;;;;5063865;28;45498;-72
2022/12/24 03:55:21;;;;;;;5.00;1.50;;;17.00;81.20;;;;;;5062995;28;45610;-71
2022/12/24 04:01:47;;;;;;;4.53;1.25;;;17.00;81.40;;;;;;5044510;28;45189;-71
2022/12/24 04:04:13;;;;;;;2.08;0.77;;;17.00;81.00;;;;;;5043812;28;45394;-72
2022/12/24 04:06:42;;;;;;;3.45;1.23;;;17.00;81.00;;;;;;5044287;28;45639;-71
2022/12/24 04:09:09;;;;;;;4.07;1.10;;;17.00;81.00;;;;;;5044590;28;47956;-71
2022/12/24 04:11:35;;;;;;;3.75;1.27;;;16.90;81.10;;;;;;5044057;28;45234;-71
2022/12/24 04:14:02;;;;;;;5.90;1.35;;;16.90;81.20;;;;;;5043108;28;45422;-72
2022/12/24 04:16:29;;;;;;;5.50;1.08;;;16.90;81.00;;;;;;5055751;28;45486;-72
2022/12/24 04:18:55;;;;;;;3.30;1.00;;;16.90;80.70;;;;;;5064363;28;46625;-72
2022/12/24 04:21:22;;;;;;;3.40;0.88;;;16.90;80.50;;;;;;5064648;28;45192;-72
2022/12/24 04:23:50;;;;;;;4.28;1.48;;;16.90;80.70;;;;;;5064454;28;45258;-72
2022/12/24 04:26:18;;;;;;;2.17;0.90;;;16.90;80.90;;;;;;5063683;28;45244;-72
2022/12/24 04:28:45;;;;;;;4.07;1.08;;;16.90;80.90;;;;;;5064265;28;46582;-72
2022/12/24 04:31:13;;;;;;;3.42;0.85;;;17.00;80.70;;;;;;5064813;28;45245;-71
2022/12/24 04:33:41;;;;;;;4.88;1.30;;;17.00;80.70;;;;;;5050537;28;45318;-71
2022/12/24 04:36:10;;;;;;;4.10;1.10;;;17.00;80.60;;;;;;5043442;28;45463;-71
2022/12/24 04:38:37;;;;;;;9.05;1.42;;;17.00;80.50;;;;;;5043689;28;47881;-71
2022/12/24 04:41:07;;;;;;;5.03;1.10;;;17.00;80.20;;;;;;5043836;28;45256;-71
2022/12/24 04:43:34;;;;;;;2.85;0.80;;;17.00;80.30;;;;;;5043550;28;45282;-71
2022/12/24 04:46:05;;;;;;;3.75;1.23;;;17.00;80.30;;;;;;5043866;28;45353;-71
2022/12/24 04:48:32;;;;;;;3.17;1.10;;;17.00;80.30;;;;;;5044072;28;45306;-71
2022/12/24 04:51:01;;;;;;;3.42;0.90;;;17.00;80.60;;;;;;5043640;28;45444;-72
2022/12/24 04:53:28;;;;;;;4.95;1.33;;;17.00;80.50;;;;;;5046540;28;45296;-71
2022/12/24 04:55:55;;;;;;;4.82;1.30;;;17.00;80.50;;;;;;5048404;28;45277;-72
2022/12/24 04:58:24;;;;;;;2.88;0.90;;;16.90;80.10;;;;;;5043721;28;45689;-72
2022/12/24 05:00:51;;;;;;;3.50;0.90;;;17.00;80.40;;;;;;5044135;28;45424;-72
2022/12/24 05:03:17;;;;;;;3.40;1.10;;;16.90;80.40;;;;;;5043563;28;45243;-72
2022/12/24 05:05:44;;;;;;;3.55;0.93;;;16.90;80.50;;;;;;5046400;28;45411;-72
2022/12/24 05:08:11;;;;;;;4.18;1.00;;;16.90;80.40;;;;;;5048218;28;47732;-72
2022/12/24 05:10:38;;;;;;;3.80;0.93;;;17.00;80.50;;;;;;5043218;28;45412;-72
2022/12/24 05:13:05;;;;;;;2.67;1.00;;;16.90;80.50;;;;;;5043735;28;45407;-72
2022/12/24 05:15:33;;;;;;;2.03;0.80;;;17.00;81.00;;;;;;5042364;28;45507;-72
2022/12/24 05:18:00;;;;;;;3.47;0.90;;;17.00;80.70;;;;;;5043719;28;46114;-71
2022/12/24 05:20:27;;;;;;;2.30;0.95;;;17.00;80.60;;;;;;5043534;28;45273;-71
2022/12/24 05:28:34;;;;;;;2.35;0.73;;;17.00;80.60;;;;;;5043528;28;45730;-71
2022/12/24 05:31:02;;;;;;;1.83;0.82;;;17.00;80.60;;;;;;5043484;28;45224;-71
2022/12/24 05:33:29;;;;;;;4.80;0.93;;;17.00;80.70;;;;;;5043169;28;45472;-71
2022/12/24 05:35:56;;;;;;;2.60;1.02;;;17.00;80.80;;;;;;5043230;28;45328;-71
2022/12/24 05:38:23;;;;;;;1.77;0.80;;;17.00;80.60;;;;;;5043432;28;45410;-71
2022/12/24 05:40:49;;;;;;;3.30;0.93;;;17.00;80.70;;;;;;5044092;28;45304;-71
2022/12/24 05:43:16;;;;;;;4.82;0.90;;;17.00;80.30;;;;;;5043533;28;45225;-72
2022/12/24 05:45:43;;;;;;;3.72;0.77;;;17.00;80.10;;;;;;5042864;28;45412;-72
2022/12/24 05:48:11;;;;;;;5.15;1.10;;;17.00;80.40;;;;;;5042992;28;46461;-72
2022/12/24 05:50:40;;;;;;;1.92;0.80;;;16.90;80.60;;;;;;5043188;28;45547;-72
2022/12/24 05:53:07;;;;;;;2.17;0.90;;;16.90;80.50;;;;;;5043432;28;45418;-72
2022/12/24 05:55:34;;;;;;;3.72;0.90;;;16.90;80.70;;;;;;5044207;28;45440;-72
2022/12/24 05:58:01;;;;;;;3.20;0.98;;;16.90;80.80;;;;;;5054261;28;47944;-72
2022/12/24 06:00:28;;;;;;;2.95;1.00;;;16.90;80.70;;;;;;5065076;28;45375;-72
2022/12/24 06:02:54;;;;;;;2.60;0.93;;;16.90;80.70;;;;;;5065003;28;45335;-72
2022/12/24 06:05:22;;;;;;;2.15;0.77;;;16.90;80.70;;;;;;5065017;28;45322;-72
2022/12/24 06:07:49;;;;;;;3.10;0.95;;;16.90;80.70;;;;;;5064607;28;45272;-72
2022/12/24 06:10:16;;;;;;;6.47;1.10;;;16.90;80.20;;;;;;5065143;28;45438;-72
2022/12/24 06:12:43;;;;;;;2.95;0.88;;;16.90;80.60;;;;;;5065220;28;45614;-72
2022/12/24 06:15:10;;;;;;;3.58;1.10;;;16.90;80.50;;;;;;5062653;28;45507;-72
2022/12/24 06:17:37;;;;;;;3.30;1.08;;;16.90;80.60;;;;;;5065130;28;46302;-72
2022/12/24 06:20:05;;;;;;;2.90;0.93;;;17.00;80.80;;;;;;5061976;28;45347;-72
2022/12/24 06:22:33;;;;;;;4.78;1.20;;;17.00;80.70;;;;;;5059257;28;45375;-72
2022/12/24 06:25:00;;;;;;;3.38;0.93;;;17.00;80.70;;;;;;5051812;28;45382;-72
2022/12/24 06:27:26;;;;;;;2.83;1.10;;;17.00;80.70;;;;;;5056743;28;45731;-72
2022/12/24 06:29:53;;;;;;;5.47;1.00;;;17.00;81.20;;;;;;5057368;28;45338;-72
2022/12/24 06:32:20;;;;;;;5.43;1.30;;;17.00;81.20;;;;;;5062969;28;45471;-71
2022/12/24 06:34:47;;;;;;;7.15;1.42;;;17.00;81.00;;;;;;5064660;28;45545;-72
2022/12/24 06:37:17;;;;;;;2.55;1.00;;;17.00;80.60;;;;;;5064502;28;46669;-72
2022/12/24 06:39:45;;;;;;;4.07;1.25;;;16.90;80.20;;;;;;5065102;28;45383;-72
2022/12/24 06:42:12;;;;;;;3.28;1.08;;;16.90;80.80;;;;;;5049464;28;45527;-71
2022/12/24 06:44:39;;;;;;;3.92;1.23;;;16.90;80.90;;;;;;5064513;28;45636;-72
2022/12/24 06:47:06;;;;;;;5.13;0.98;;;16.90;80.90;;;;;;5064815;28;46740;-72
2022/12/24 06:49:33;;;;;;;4.13;1.30;;;16.90;80.90;;;;;;5063765;28;45436;-71
2022/12/24 06:52:00;;;;;;;4.82;1.30;;;16.90;80.90;;;;;;5053871;28;45418;-72
2022/12/24 06:54:27;;;;;;;4.47;1.13;;;16.90;80.90;;;;;;5055876;28;45387;-73
2022/12/24 06:56:55;;;;;;;3.75;1.38;;;16.90;80.90;;;;;;5053465;28;45703;-72
2022/12/24 06:59:22;;;;;;;4.55;1.20;;;16.90;81.00;;;;;;5061591;28;45423;-72
2022/12/24 07:01:49;;;;;;;6.18;1.42;;;16.90;81.00;;;;;;5060815;28;45473;-72
2022/12/24 07:04:16;;;;;;;4.18;1.08;;;16.80;81.00;;;;;;5064219;28;45577;-72
2022/12/24 07:06:43;;;;;;;5.38;1.98;;;16.90;81.10;;;;;;5047786;28;45480;-71
2022/12/24 07:09:12;;;;;;;3.78;1.33;;;16.90;80.90;;;;;;5057560;28;45391;-71
2022/12/24 07:11:39;;;;;;;4.47;1.00;;;16.90;80.50;;;;;;5057472;28;45329;-72
2022/12/24 07:14:07;;;;;;;3.88;1.20;;;16.90;80.50;;;;;;5053239;28;45566;-72
2022/12/24 07:16:34;;;;;;;5.30;1.30;;;16.90;80.70;;;;;;5062911;28;45403;-72
2022/12/24 07:19:01;;;;;;;4.22;1.10;;;16.90;80.70;;;;;;5062855;28;45337;-72
2022/12/24 07:21:28;;;;;;;3.95;1.20;;;16.90;80.70;;;;;;5064591;28;45253;-72
2022/12/24 07:23:55;;;;;;;5.68;1.40;;;17.00;80.50;;;;;;5052892;28;45404;-72
2022/12/24 07:26:22;;;;;;;6.88;1.08;;;17.00;80.50;;;;;;5061994;28;45347;-72
2022/12/24 07:28:48;;;;;;;5.57;1.55;;;17.00;80.30;;;;;;5064130;28;45397;-73
2022/12/24 07:31:17;;;;;;;5.85;1.40;;;17.00;80.30;;;;;;5063434;28;45347;-72
2022/12/24 07:33:44;;;;;;;4.88;1.42;;;16.90;80.40;;;;;;5062273;28;45486;-72
2022/12/24 07:36:17;;;;;;;4.32;1.20;;;16.90;80.30;;;;;;5060373;28;45749;-71
2022/12/24 07:38:44;;;;;;;4.55;1.20;;;16.90;80.30;;;;;;5063312;28;45239;-72
2022/12/24 07:41:12;;;;;;;4.20;1.33;;;16.90;80.20;;;;;;5045759;28;45369;-72
2022/12/24 07:43:38;;;;;;;5.82;1.30;;;16.90;80.00;;;;;;5059912;28;45597;-72
2022/12/24 07:46:05;;;;;;;5.35;1.50;;;16.90;80.10;;;;;;5063139;28;47990;-73
2022/12/24 07:48:33;;;;;;;2.85;1.10;;;16.90;80.20;;;;;;5063169;28;45341;-73
2022/12/24 07:51:00;;;;;;;5.78;1.27;;;16.90;80.20;;;;;;5063719;28;45264;-73
2022/12/24 07:53:28;;;;;;;5.63;1.35;;;16.90;80.30;;;;;;5063048;28;45382;-73
2022/12/24 07:55:55;;;;;;;2.85;1.13;;;16.90;80.30;;;;;;5062618;28;47014;-73
2022/12/24 07:58:22;;;;;;;5.43;1.40;;;16.90;80.60;;;;;;5061627;28;45508;-73
2022/12/24 08:00:49;;;;;;;4.70;1.35;;;16.90;80.60;;;;;;5048097;28;45395;-73
2022/12/24 08:03:17;;;;;;;4.63;1.48;;;16.90;80.60;;;;;;5042123;28;45267;-73
2022/12/24 08:05:46;;;;;;;4.10;1.25;;;16.90;80.30;;;;;;5056272;28;45405;-73
2022/12/24 08:08:13;;;;;;;5.43;1.52;;;16.90;80.30;;;;;;5061804;28;45281;-73
2022/12/24 08:10:40;;;;;;;8.55;1.98;;;17.00;80.40;;;;;;5062527;28;45215;-72
2022/12/24 08:13:07;;;;;;;4.25;1.33;;;17.00;80.50;;;;;;5051667;28;45532;-73
2022/12/24 08:15:34;;;;;;;4.70;1.40;;;17.00;80.10;;;;;;5060643;28;47047;-72
2022/12/24 08:18:01;;;;;;;4.07;1.42;;;17.00;79.80;;;;;;5061877;28;45499;-73
2022/12/24 08:20:28;;;;;;;2.65;1.20;;;17.00;80.00;;;;;;5060273;28;45271;-72
2022/12/24 08:22:56;;;;;;;3.88;1.60;;;17.00;80.10;;;;;;5063666;28;45595;-72
2022/12/24 08:25:22;;;;;;;3.88;1.17;;;17.00;80.20;;;;;;5061165;28;47587;-72
2022/12/24 08:27:49;;;;;;;5.20;1.38;;;17.00;80.20;;;;;;5056919;28;45445;-72
2022/12/24 08:30:16;;;;;;;7.28;1.67;;;17.00;80.20;;;;;;5058792;28;45490;-73
2022/12/24 08:32:43;;;;;;;3.45;1.40;;;17.00;80.10;;;;;;5041564;28;45421;-72
2022/12/24 08:35:10;;;;;;;4.90;1.30;;;16.90;79.80;;;;;;5059821;28;47004;-73
2022/12/24 08:37:36;;;;;;;4.75;1.40;;;16.90;80.00;;;;;;5062221;28;45248;-73
2022/12/24 08:40:06;;;;;;;7.15;1.55;;;16.80;80.30;;;;;;5062532;28;45526;-73
2022/12/24 08:42:33;;;;;;;4.53;1.17;;;16.80;80.50;;;;;;5062798;28;45403;-72
2022/12/24 08:45:00;;;;;;;3.03;1.30;;;16.80;80.70;;;;;;5060874;28;47492;-72
2022/12/24 08:47:27;;;;;;;7.45;1.60;;;16.80;80.80;;;;;;5058812;28;45307;-72
2022/12/24 08:49:54;;;;;;;6.70;1.60;;;16.80;80.60;;;;;;5042774;28;45333;-73
2022/12/24 08:52:20;;;;;;;5.22;1.27;;;16.70;80.30;;;;;;5050586;28;45299;-72
2022/12/24 08:54:47;;;;;;;5.10;1.20;;;16.80;80.20;;;;;;5061697;28;47984;-72
2022/12/24 08:57:15;;;;;;;4.25;1.40;;;16.70;80.30;;;;;;5061954;28;45535;-72
2022/12/24 08:59:42;;;;;;;4.68;1.40;;;16.80;80.50;;;;;;5054122;28;45404;-72
2022/12/24 09:02:09;;;;;;;6.88;1.52;;;16.80;80.20;;;;;;5061543;28;45494;-73
2022/12/24 09:04:39;;;;;;;5.20;1.65;;;16.80;80.10;;;;;;5061144;28;47665;-72
2022/12/24 09:07:06;;;;;;;5.45;1.25;;;16.80;79.80;;;;;;5062282;28;45460;-73
2022/12/24 09:09:33;;;;;;;5.60;1.38;;;16.70;79.00;;;;;;5061885;28;45263;-73
2022/12/24 09:12:00;;;;;;;5.60;1.40;;;16.80;79.00;;;;;;5062006;28;45365;-72
2022/12/24 09:14:28;;;;;;;4.30;1.48;;;16.80;79.40;;;;;;5060651;28;46798;-73
2022/12/24 09:16:54;;;;;;;6.28;1.65;;;16.80;79.20;;;;;;5061976;28;45361;-72
2022/12/24 09:19:21;;;;;;;8.68;2.10;;;16.70;79.10;;;;;;5062530;28;45331;-73
2022/12/24 09:21:49;;;;;;;8.27;1.60;;;16.70;79.10;;;;;;5054195;28;45242;-72
2022/12/24 09:24:15;;;;;;;4.45;1.30;;;16.70;79.40;;;;;;5041107;28;45533;-73
2022/12/24 09:26:44;;;;;;;7.45;1.92;;;16.70;79.40;;;;;;5058660;28;45368;-73
2022/12/24 09:29:11;;;;;;;6.95;1.58;;;16.80;79.50;;;;;;5062744;28;45317;-73
2022/12/24 09:31:39;;;;;;;7.60;1.65;;;16.70;79.30;;;;;;5065096;28;45656;-73
2022/12/24 09:34:06;;;;;;;7.25;1.90;;;16.70;78.90;;;;;;5065331;28;47030;-72
2022/12/24 09:36:34;;;;;;;6.95;1.33;;;16.70;78.80;;;;;;5064432;28;45635;-72
2022/12/24 09:39:01;;;;;;;6.43;1.52;;;16.70;79.00;;;;;;5064202;28;45367;-72
2022/12/24 09:41:40;;;;;;;8.02;1.80;;;16.70;79.10;;;;;;5065708;28;45379;-73
2022/12/24 09:44:20;;;;;;;10.80;2.17;;;16.70;78.90;;;;;;5064422;28;45462;-72
2022/12/24 09:46:50;;;;;;;8.00;1.83;;;16.70;79.30;;;;;;5063553;28;45327;-73
2022/12/24 09:49:21;;;;;;;6.43;1.90;;;16.80;79.30;;;;;;5065078;28;45364;-73
2022/12/24 09:51:51;;;;;;;8.52;1.88;;;16.80;79.40;;;;;;5063991;28;45467;-74
2022/12/24 09:54:23;;;;;;;5.18;1.77;;;16.80;79.40;;;;;;5064804;28;45568;-73
2022/12/24 09:56:51;;;;;;;5.60;1.85;;;16.80;79.60;;;;;;5059902;28;45631;-73
2022/12/24 09:59:21;;;;;;;7.68;1.70;;;16.90;79.60;;;;;;5064711;28;45402;-73
2022/12/24 10:01:51;;;;;;;7.03;2.08;;;16.90;79.70;;;;;;5063273;28;45300;-73
2022/12/24 10:04:20;;;;;;;4.90;1.60;;;16.90;79.70;;;;;;5063596;28;45469;-73
2022/12/24 10:06:53;;;;;;;6.03;1.60;;;16.90;79.80;;;;;;5064037;28;45408;-72
2022/12/24 10:09:28;;;;;;;7.03;1.50;;;16.90;79.80;;;;;;5063928;28;45387;-74
2022/12/24 10:12:04;;;;;;;8.32;1.85;;;16.90;79.90;;;;;;5061510;28;45344;-73
2022/12/24 10:14:46;;;;;;;5.80;1.58;;;16.90;80.00;;;;;;5042674;28;45315;-73
2022/12/24 10:17:41;;;;;;;5.63;1.67;;;16.90;80.10;;;;;;5060563;28;45425;-73
2022/12/24 10:20:29;;;;;;;5.82;1.40;;;16.90;80.20;;;;;;5064933;28;45235;-73
2022/12/24 10:23:05;;;;;;;5.38;1.52;;;16.90;80.00;;;;;;5064794;28;45316;-74
2022/12/24 10:25:36;;;;;;;8.75;1.70;;;16.90;80.00;;;;;;5063076;28;48007;-72
2022/12/24 10:28:12;;;;;;;5.03;2.08;;;17.00;80.00;;;;;;5058238;28;45431;-72
2022/12/24 10:30:39;;;;;;;4.75;1.15;;;16.90;80.00;;;;;;5059201;28;45425;-73
2022/12/24 10:33:16;;;;;;;7.35;1.83;;;16.90;79.80;;;;;;5064627;28;45309;-73
2022/12/24 10:35:49;;;;;;;5.72;1.70;;;16.90;79.60;;;;;;5063654;28;46597;-73
2022/12/24 10:38:15;;;;;;;5.95;1.52;;;16.90;79.40;;;;;;5061889;28;45370;-72
2022/12/24 10:40:44;;;;;;;4.43;1.52;;;17.00;79.20;;;;;;5055428;28;45361;-72
2022/12/24 10:43:15;;;;;;;5.43;1.88;;;17.00;79.30;;;;;;5061675;28;45538;-72
2022/12/24 10:45:44;;;;;;;6.50;1.83;;;17.00;79.10;;;;;;5063094;28;46293;-72
2022/12/24 10:48:18;;;;;;;6.95;1.85;;;17.00;78.70;;;;;;5046672;28;45392;-72
2022/12/24 10:50:54;;;;;;;6.57;1.75;;;17.10;78.80;;;;;;5055660;28;45598;-73
2022/12/24 10:53:27;;;;;;;9.15;1.60;;;17.10;78.60;;;;;;5063368;28;45390;-73
2022/12/24 10:56:02;;;;;;;7.30;1.50;;;17.00;78.30;;;;;;5063532;28;46285;-72
2022/12/24 10:58:29;;;;;;;9.48;1.70;;;17.10;78.30;;;;;;5064406;28;45339;-72
2022/12/24 11:00:56;;;;;;;7.45;1.60;;;17.10;78.20;;;;;;5064434;28;45332;-72
2022/12/24 11:03:29;;;;;;;7.40;1.80;;;17.10;78.10;;;;;;5063981;28;45357;-72
2022/12/24 11:06:09;;;;;;;8.40;1.80;;;17.10;78.20;;;;;;5062299;28;46559;-72
2022/12/24 11:08:37;;;;;;;6.68;2.17;;;17.00;78.40;;;;;;5061064;28;45453;-72
2022/12/24 11:11:06;;;;;;;4.65;1.50;;;17.00;78.70;;;;;;5063141;28;45258;-72
2022/12/24 11:13:36;;;;;;;7.22;2.47;;;17.00;78.80;;;;;;5064089;28;45502;-72
2022/12/24 11:16:07;;;;;;;7.60;1.65;;;17.00;78.90;;;;;;5041164;28;46591;-72
2022/12/24 11:18:38;;;;;;;4.78;1.38;;;17.00;78.80;;;;;;5057224;28;45491;-72
2022/12/24 11:21:05;;;;;;;7.75;1.65;;;17.00;79.00;;;;;;5063245;28;45268;-72
2022/12/24 11:23:32;;;;;;;6.53;1.30;;;17.00;79.00;;;;;;5057425;28;45304;-72
2022/12/24 11:25:59;;;;;;;7.75;1.98;;;17.00;79.20;;;;;;5062436;28;48365;-72
2022/12/24 11:28:28;;;;;;;9.38;1.83;;;17.00;79.40;;;;;;5054864;28;45379;-72
2022/12/24 11:31:02;;;;;;;8.77;2.05;;;17.00;79.60;;;;;;5064055;28;45270;-72
2022/12/24 11:33:30;;;;;;;7.82;1.45;;;17.00;79.60;;;;;;5054402;28;45356;-72
2022/12/24 11:36:02;;;;;;;4.82;1.52;;;16.90;79.50;;;;;;5062219;28;48090;-72
2022/12/24 11:38:32;;;;;;;6.22;1.83;;;17.00;79.60;;;;;;5062887;28;45355;-71
2022/12/24 11:41:02;;;;;;;7.13;1.85;;;17.00;79.60;;;;;;5063240;28;45450;-72
2022/12/24 11:43:44;;;;;;;7.97;1.63;;;17.00;79.60;;;;;;5063095;28;45352;-72
2022/12/24 11:46:35;;;;;;;5.57;1.63;;;17.00;79.50;;;;;;5062587;28;46584;-72
2022/12/24 11:49:24;;;;;;;5.50;1.45;;;17.00;79.50;;;;;;5062851;28;45328;-71
2022/12/24 11:52:20;;;;;;;5.72;1.45;;;17.10;79.60;;;;;;5044059;28;45552;-70
2022/12/24 11:54:59;;;;;;;5.72;1.52;;;17.10;79.60;;;;;;5046310;28;45527;-72
2022/12/24 11:57:32;;;;;;;5.40;1.63;;;17.00;79.30;;;;;;5063388;28;46192;-71
2022/12/24 11:59:59;;;;;;;7.90;1.98;;;17.00;79.40;;;;;;5062999;28;45514;-71
2022/12/24 12:02:32;;;;;;;5.80;1.40;;;16.90;79.60;;;;;;5063773;28;45474;-71
2022/12/24 12:05:02;;;;;;;5.05;1.48;;;16.90;79.60;;;;;;5062340;28;45551;-72
2022/12/24 12:07:34;;;;;;;5.13;1.55;;;17.00;79.80;;;;;;5051048;28;46547;-71
2022/12/24 12:10:06;;;;;;;7.70;1.75;;;16.90;79.10;;;;;;5053806;28;45363;-71
2022/12/24 12:12:38;;;;;;;6.10;1.85;;;16.90;78.80;;;;;;5060927;28;45591;-71
2022/12/24 12:15:13;;;;;;;7.15;1.88;;;16.90;78.80;;;;;;5060954;28;45477;-71
2022/12/24 12:17:46;;;;;;;6.93;1.95;;;16.90;78.70;;;;;;5063527;28;46408;-72
2022/12/24 12:20:18;;;;;;;6.90;2.45;;;16.90;78.70;;;;;;5062888;28;45370;-71
2022/12/24 12:22:56;;;;;;;7.47;1.77;;;16.80;78.80;;;;;;5063019;28;45376;-72
2022/12/24 12:25:27;;;;;;;7.35;1.85;;;16.80;78.80;;;;;;5061342;28;45457;-72
2022/12/24 12:27:56;;;;;;;6.75;2.00;;;16.80;79.30;;;;;;5059124;28;48343;-72
2022/12/24 12:30:24;;;;;;;6.72;1.73;;;16.90;79.10;;;;;;5061906;28;45462;-72
2022/12/24 12:32:58;;;;;;;8.10;1.77;;;16.90;79.10;;;;;;5061657;28;45452;-72
2022/12/24 12:35:28;;;;;;;8.38;1.75;;;16.90;79.00;;;;;;5062397;28;45558;-72
2022/12/24 12:37:59;;;;;;;7.63;1.85;;;16.90;78.80;;;;;;5062121;28;46640;-72
2022/12/24 12:40:39;;;;;;;5.80;1.60;;;16.90;78.70;;;;;;5049367;28;45355;-72
2022/12/24 12:43:14;;;;;;;8.68;1.77;;;16.90;78.60;;;;;;5058451;28;45375;-71
2022/12/24 12:45:48;;;;;;;6.40;1.70;;;16.90;78.80;;;;;;5059001;28;45515;-72
2022/12/24 12:48:37;;;;;;;8.30;1.60;;;16.90;78.70;;;;;;5059201;28;46651;-72
2022/12/24 12:51:08;;;;;;;6.85;1.83;;;16.90;79.00;;;;;;5054103;28;45475;-73
2022/12/24 12:54:11;;;;;;;6.30;2.03;;;16.90;79.00;;;;;;5060956;28;45692;-72
2022/12/24 12:56:40;;;;;;;5.97;1.65;;;16.90;79.20;;;;;;5054811;28;45495;-72
2022/12/24 12:59:14;;;;;;;5.43;1.65;;;16.90;79.20;;;;;;5054367;28;46299;-72
2022/12/24 13:01:47;;;;;;;8.88;2.00;;;16.90;79.20;;;;;;5059447;28;45410;-72
2022/12/24 13:04:47;;;;;;;8.80;1.73;;;16.90;79.20;;;;;;5043582;28;45479;-72
2022/12/24 13:07:36;;;;;;;7.47;1.42;;;16.90;79.20;;;;;;5041550;28;45324;-72
2022/12/24 13:10:40;;;;;;;6.50;1.80;;;17.00;79.30;;;;;;5050613;28;46286;-72
2022/12/24 13:13:28;;;;;;;7.85;1.77;;;16.90;79.30;;;;;;5060923;28;45599;-72